createdAt,value
2023-04-21T00:00:22.678Z,7.90
2023-04-21T00:05:25.791Z,7.90
2023-04-21T00:10:28.855Z,8.00
2023-04-21T00:15:33.112Z,8.10
2023-04-21T00:20:37.637Z,8.10
2023-04-21T00:25:40.521Z,8.10
2023-04-21T00:30:44.712Z,8.00
2023-04-21T00:35:47.683Z,8.00
2023-04-21T00:40:50.556Z,7.90
2023-04-21T00:45:54.724Z,7.20
2023-04-21T00:50:57.543Z,7.50
2023-04-21T00:56:00.383Z,7.40
2023-04-21T01:01:05.377Z,7.30
2023-04-21T01:06:08.752Z,7.00
2023-04-21T01:11:13.958Z,7.30
2023-04-21T01:16:19.801Z,7.30
2023-04-21T01:21:23.685Z,7.20
2023-04-21T01:26:27.884Z,7.10
2023-04-21T01:31:31.256Z,7.00
2023-04-21T01:36:34.204Z,7.10
2023-04-21T01:41:38.375Z,7.10
2023-04-21T01:46:41.256Z,7.20
2023-04-21T01:51:44.111Z,7.00
2023-04-21T01:56:48.371Z,6.50
2023-04-21T02:01:51.553Z,6.60
2023-04-21T02:06:54.433Z,6.60
2023-04-21T02:11:58.941Z,6.80
2023-04-21T02:17:03.572Z,6.80
2023-04-21T02:22:07.161Z,6.60
2023-04-21T02:27:11.343Z,6.40
2023-04-21T02:32:24.986Z,6.30
2023-04-21T02:37:34.488Z,6.40
2023-04-21T02:42:38.769Z,6.50
2023-04-21T02:47:41.753Z,6.30
2023-04-21T02:52:44.695Z,6.20
2023-04-21T02:57:48.941Z,5.50
2023-04-21T03:02:53.326Z,5.80
2023-04-21T03:07:56.449Z,5.80
2023-04-21T03:13:00.692Z,5.90
2023-04-21T03:18:03.626Z,5.80
2023-04-21T03:23:06.616Z,5.80
2023-04-21T03:28:10.991Z,5.50
2023-04-21T03:33:13.895Z,5.50
2023-04-21T03:38:17.055Z,5.70
2023-04-21T03:43:21.308Z,5.90
2023-04-21T03:48:24.230Z,6.00
2023-04-21T03:53:27.112Z,6.20
2023-04-21T03:58:31.424Z,6.00
2023-04-21T04:03:34.578Z,5.40
2023-04-21T04:08:37.879Z,5.60
2023-04-21T04:13:42.086Z,5.70
2023-04-21T04:18:45.729Z,5.60
2023-04-21T04:23:51.697Z,5.70
2023-04-21T04:28:56.476Z,5.80
2023-04-21T04:33:59.587Z,5.60
2023-04-21T04:39:02.504Z,5.50
2023-04-21T04:44:07.852Z,5.60
2023-04-21T04:49:10.981Z,5.50
2023-04-21T04:54:13.918Z,5.60
2023-04-21T04:59:18.125Z,5.30
2023-04-21T05:04:21.561Z,5.40
2023-04-21T05:09:24.793Z,5.50
2023-04-21T05:14:29.436Z,5.60
2023-04-21T05:19:32.324Z,5.50
2023-04-21T05:24:35.539Z,5.50
2023-04-21T05:29:39.757Z,5.50
2023-04-21T05:34:42.616Z,5.60
2023-04-21T05:39:45.976Z,5.60
2023-04-21T05:44:50.675Z,5.50
2023-04-21T05:49:53.940Z,5.10
2023-04-21T05:54:56.989Z,5.30
2023-04-21T06:00:01.233Z,5.70
2023-04-21T06:05:04.365Z,5.80
2023-04-21T06:10:08.765Z,5.80
2023-04-21T06:15:13.222Z,6.00
2023-04-21T06:20:17.721Z,6.00
2023-04-21T06:25:20.984Z,6.20
2023-04-21T06:30:25.285Z,6.30
2023-04-21T06:35:28.329Z,6.40
2023-04-21T06:40:31.273Z,6.50
2023-04-21T06:45:35.550Z,6.70
2023-04-21T06:50:38.473Z,6.90
2023-04-21T06:55:41.398Z,7.10
2023-04-21T07:00:45.634Z,7.20
2023-04-21T07:05:48.654Z,7.40
2023-04-21T07:10:51.545Z,7.40
2023-04-21T07:15:55.791Z,7.40
2023-04-21T07:20:58.733Z,7.40
2023-04-21T07:26:01.656Z,7.30
2023-04-21T07:31:06.158Z,7.40
2023-04-21T07:36:09.761Z,7.90
2023-04-21T07:41:13.167Z,8.00
2023-04-21T07:46:17.431Z,8.00
2023-04-21T07:51:20.649Z,8.00
2023-04-21T07:56:23.580Z,8.30
2023-04-21T08:01:27.818Z,8.50
2023-04-21T08:06:33.324Z,8.80
2023-04-21T08:11:36.418Z,8.80
2023-04-21T08:16:42.296Z,8.80
2023-04-21T08:21:45.546Z,8.90
2023-04-21T08:26:48.505Z,9.00
2023-04-21T08:31:52.831Z,8.90
2023-04-21T08:36:55.735Z,9.20
2023-04-21T08:42:00.218Z,9.10
2023-04-21T08:47:05.787Z,9.30
2023-04-21T08:52:08.820Z,9.60
2023-04-21T08:57:15.967Z,9.80
2023-04-21T09:02:21.016Z,9.80
2023-04-21T09:07:34.130Z,9.70
2023-04-21T09:12:40.775Z,9.70
2023-04-21T09:17:46.790Z,10.10
2023-04-21T09:22:51.205Z,10.40
2023-04-21T09:27:56.077Z,10.40
2023-04-21T09:33:02.368Z,10.30
2023-04-21T09:38:11.364Z,10.30
2023-04-21T09:43:14.285Z,10.60
2023-04-21T09:48:21.920Z,10.90
2023-04-21T09:53:27.507Z,11.10
2023-04-21T09:58:40.419Z,11.30
2023-04-21T10:03:46.752Z,11.20
2023-04-21T10:08:51.869Z,11.40
2023-04-21T10:13:55.011Z,11.70
2023-04-21T10:18:59.225Z,12.30
2023-04-21T10:24:02.144Z,12.40
2023-04-21T10:29:06.907Z,12.40
2023-04-21T10:34:22.695Z,12.70
2023-04-21T10:39:30.359Z,13.00
2023-04-21T10:44:33.263Z,13.40
2023-04-21T10:49:41.290Z,13.70
2023-04-21T10:54:46.443Z,13.70
2023-04-21T10:59:50.827Z,14.00
2023-04-21T11:04:56.314Z,14.40
2023-04-21T11:10:01.653Z,14.40
2023-04-21T11:15:07.433Z,14.20
2023-04-21T11:20:12.039Z,14.60
2023-04-21T11:25:19.103Z,14.90
2023-04-21T11:30:22.188Z,15.40
2023-04-21T11:35:26.484Z,15.30
2023-04-21T11:40:29.372Z,15.30
2023-04-21T11:45:32.264Z,15.40
2023-04-21T11:50:38.956Z,15.70
2023-04-21T11:55:43.870Z,16.10
2023-04-21T12:00:47.274Z,16.00
2023-04-21T12:05:57.706Z,16.30
2023-04-21T12:11:01.271Z,16.30
2023-04-21T12:16:04.783Z,16.70
2023-04-21T12:21:09.185Z,16.80
2023-04-21T12:26:12.429Z,17.00
2023-04-21T12:31:15.494Z,16.90
2023-04-21T12:36:19.750Z,17.00
2023-04-21T12:41:22.659Z,17.20
2023-04-21T12:46:25.672Z,17.30
2023-04-21T12:51:29.910Z,17.50
2023-04-21T12:56:32.828Z,17.60
2023-04-21T13:01:35.763Z,17.50
2023-04-21T13:06:41.090Z,17.40
2023-04-21T13:11:44.038Z,17.80
2023-04-21T13:16:47.487Z,17.70
2023-04-21T13:21:54.027Z,18.00
2023-04-21T13:26:57.302Z,18.30
2023-04-21T13:32:00.514Z,18.20
2023-04-21T13:37:05.803Z,18.30
2023-04-21T13:42:08.786Z,18.50
2023-04-21T13:47:11.766Z,18.70
2023-04-21T13:52:16.061Z,18.90
2023-04-21T13:57:26.007Z,18.80
2023-04-21T14:02:29.096Z,18.90
2023-04-21T14:07:33.665Z,18.90
2023-04-21T14:12:36.672Z,18.90
2023-04-21T14:17:39.716Z,18.80
2023-04-21T14:22:44.244Z,18.60
2023-04-21T14:27:47.274Z,18.10
2023-04-21T14:32:52.259Z,17.70
2023-04-21T14:37:56.663Z,17.10
2023-04-21T14:42:59.609Z,17.10
2023-04-21T14:48:02.669Z,16.50
2023-04-21T14:53:07.058Z,16.30
2023-04-21T14:58:09.965Z,16.00
2023-04-21T15:03:12.945Z,16.30
2023-04-21T15:08:18.358Z,16.80
2023-04-21T15:13:21.972Z,17.10
2023-04-21T15:18:24.908Z,17.30
2023-04-21T15:23:29.254Z,17.30
2023-04-21T15:28:32.599Z,17.50
2023-04-21T15:33:36.201Z,17.60
2023-04-21T15:38:40.521Z,17.50
2023-04-21T15:43:43.466Z,17.40
2023-04-21T15:48:46.420Z,17.30
2023-04-21T15:53:51.076Z,17.20
2023-04-21T15:58:54.047Z,17.20
2023-04-21T16:03:57.281Z,17.20
2023-04-21T16:09:01.599Z,17.20
2023-04-21T16:14:04.601Z,17.20
2023-04-21T16:19:07.570Z,17.20
2023-04-21T16:24:12.249Z,17.10
2023-04-21T16:29:15.167Z,17.20
2023-04-21T16:34:18.098Z,17.40
2023-04-21T16:39:22.317Z,17.40
2023-04-21T16:44:25.309Z,17.50
2023-04-21T16:49:30.211Z,17.60
2023-04-21T16:54:35.891Z,17.70
2023-04-21T16:59:39.167Z,18.00
2023-04-21T17:04:42.531Z,18.10
2023-04-21T17:09:46.845Z,17.90
2023-04-21T17:14:49.774Z,17.80
2023-04-21T17:19:54.125Z,17.70
2023-04-21T17:25:04.268Z,17.60
2023-04-21T17:30:09.198Z,17.60
2023-04-21T17:35:12.257Z,17.50
2023-04-21T17:40:16.519Z,17.30
2023-04-21T17:45:19.506Z,17.30
2023-04-21T17:50:22.994Z,17.20
2023-04-21T17:55:27.617Z,17.20
2023-04-21T18:00:34.478Z,17.30
2023-04-21T18:05:37.435Z,17.10
2023-04-21T18:10:41.929Z,17.20
2023-04-21T18:15:44.931Z,17.00
2023-04-21T18:20:49.025Z,16.90
2023-04-21T18:25:53.273Z,16.90
2023-04-21T18:30:56.252Z,16.80
2023-04-21T18:35:59.280Z,16.80
2023-04-21T18:41:03.830Z,16.70
2023-04-21T18:46:07.065Z,16.80
2023-04-21T18:51:09.998Z,16.80
2023-04-21T18:56:14.435Z,16.70
2023-04-21T19:01:18.797Z,16.80
2023-04-21T19:06:21.769Z,16.80
2023-04-21T19:11:26.069Z,16.70
2023-04-21T19:16:29.401Z,16.70
2023-04-21T19:21:33.118Z,16.80
2023-04-21T19:26:37.560Z,16.90
2023-04-21T19:31:40.669Z,16.80
2023-04-21T19:36:43.850Z,16.80
2023-04-21T19:41:48.202Z,16.70
2023-04-21T19:46:51.186Z,16.50
2023-04-21T19:51:54.095Z,16.40
2023-04-21T19:56:58.383Z,16.50
2023-04-21T20:02:01.982Z,16.50
2023-04-21T20:07:05.075Z,16.30
2023-04-21T20:12:09.574Z,16.30
2023-04-21T20:17:12.549Z,16.10
2023-04-21T20:22:15.493Z,15.70
2023-04-21T20:27:19.831Z,15.70
2023-04-21T20:32:22.839Z,15.80
2023-04-21T20:37:25.948Z,15.80
2023-04-21T20:42:30.226Z,15.80
2023-04-21T20:47:33.858Z,15.60
2023-04-21T20:52:36.787Z,15.70
2023-04-21T20:57:41.202Z,15.80
2023-04-21T21:02:44.399Z,15.70
2023-04-21T21:07:48.219Z,15.30
2023-04-21T21:12:52.541Z,15.10
2023-04-21T21:17:55.521Z,15.00
2023-04-21T21:22:58.452Z,15.20
2023-04-21T21:28:02.727Z,15.30
2023-04-21T21:33:05.707Z,15.20
2023-04-21T21:38:08.645Z,14.80
2023-04-21T21:43:12.866Z,14.70
2023-04-21T21:48:16.752Z,14.80
2023-04-21T21:53:19.787Z,14.90
2023-04-21T21:58:24.071Z,15.00
2023-04-21T22:03:27.257Z,15.00
2023-04-21T22:08:30.362Z,15.10
2023-04-21T22:13:34.703Z,15.10
2023-04-21T22:18:37.678Z,15.10
2023-04-21T22:23:40.577Z,14.90
2023-04-21T22:28:47.126Z,15.00
2023-04-21T22:33:50.046Z,15.00
2023-04-21T22:38:52.979Z,14.70
2023-04-21T22:43:57.226Z,14.90
2023-04-21T22:49:00.226Z,15.00
2023-04-21T22:54:03.368Z,14.90
2023-04-21T22:59:07.651Z,14.90
2023-04-21T23:04:10.691Z,14.90
2023-04-21T23:09:13.743Z,14.70
2023-04-21T23:14:18.034Z,14.30
2023-04-21T23:19:21.497Z,14.10
2023-04-21T23:24:24.473Z,14.30
2023-04-21T23:29:28.712Z,14.40
2023-04-21T23:34:31.676Z,14.70
2023-04-21T23:39:34.741Z,14.70
2023-04-21T23:44:40.312Z,14.60
2023-04-21T23:49:43.382Z,14.60
2023-04-21T23:54:46.356Z,14.60
2023-04-21T23:59:50.599Z,14.60
